createdAt,value
2022-09-16T00:00:35.479Z,26.30
2022-09-16T00:03:03.761Z,26.30
2022-09-16T00:05:34.083Z,26.30
2022-09-16T00:08:02.738Z,26.30
2022-09-16T00:10:31.784Z,26.30
2022-09-16T00:12:59.460Z,26.40
2022-09-16T00:15:27.168Z,26.40
2022-09-16T00:17:55.943Z,26.40
2022-09-16T00:20:23.534Z,26.40
2022-09-16T00:22:51.228Z,26.50
2022-09-16T00:25:18.870Z,26.50
2022-09-16T00:27:48.299Z,26.60
2022-09-16T00:30:16.132Z,26.60
2022-09-16T00:32:44.887Z,26.70
2022-09-16T00:35:13.783Z,26.70
2022-09-16T00:37:41.500Z,26.80
2022-09-16T00:40:10.173Z,26.80
2022-09-16T00:42:39.231Z,26.90
2022-09-16T00:45:14.420Z,27.00
2022-09-16T00:48:01.683Z,27.00
2022-09-16T00:50:36.890Z,27.20
2022-09-16T00:53:05.076Z,27.20
2022-09-16T00:55:35.299Z,27.20
2022-09-16T00:58:09.979Z,27.30
2022-09-16T01:00:40.004Z,27.40
2022-09-16T01:03:07.756Z,27.40
2022-09-16T01:05:36.700Z,27.50
2022-09-16T01:08:05.849Z,27.50
2022-09-16T01:10:33.595Z,27.60
2022-09-16T01:13:06.805Z,27.70
2022-09-16T01:15:43.754Z,27.70
2022-09-16T01:18:37.151Z,27.80
2022-09-16T01:21:08.997Z,27.80
2022-09-16T01:23:57.686Z,27.90
2022-09-16T01:26:45.973Z,28.00
2022-09-16T01:29:27.197Z,28.00
2022-09-16T01:31:59.851Z,28.10
2022-09-16T01:34:49.080Z,28.20
2022-09-16T01:37:24.433Z,28.20
2022-09-16T01:40:11.310Z,28.30
2022-09-16T01:42:43.347Z,28.40
2022-09-16T01:45:20.337Z,28.40
2022-09-16T01:47:55.413Z,28.40
2022-09-16T01:50:31.788Z,28.50
2022-09-16T01:53:12.549Z,28.50
2022-09-16T01:55:42.575Z,28.60
2022-09-16T01:58:29.599Z,28.60
2022-09-16T02:01:00.658Z,28.70
2022-09-16T02:03:31.119Z,28.80
2022-09-16T02:06:02.082Z,28.80
2022-09-16T02:08:43.216Z,28.90
2022-09-16T02:11:13.340Z,28.90
2022-09-16T02:13:43.445Z,28.90
2022-09-16T02:16:23.101Z,28.90
2022-09-16T02:18:54.152Z,28.90
2022-09-16T02:21:25.762Z,29.00
2022-09-16T02:23:57.172Z,29.10
2022-09-16T02:26:36.375Z,29.10
2022-09-16T02:29:09.113Z,29.20
2022-09-16T02:31:38.595Z,29.20
2022-09-16T02:34:14.601Z,29.30
2022-09-16T02:36:47.373Z,29.40
2022-09-16T02:39:18.364Z,29.50
2022-09-16T02:41:47.732Z,29.60
2022-09-16T02:44:16.170Z,29.60
2022-09-16T02:47:03.852Z,29.70
2022-09-16T02:49:50.037Z,29.80
2022-09-16T02:52:37.976Z,29.80
2022-09-16T02:55:14.987Z,29.90
2022-09-16T03:00:31.932Z,29.90
2022-09-16T03:03:01.547Z,29.90
2022-09-16T03:05:30.218Z,30.00
2022-09-16T03:08:00.312Z,30.00
2022-09-16T03:10:30.483Z,30.10
2022-09-16T03:13:05.602Z,30.10
2022-09-16T03:15:50.240Z,30.20
2022-09-16T03:18:28.611Z,30.20
2022-09-16T03:21:03.021Z,30.20
2022-09-16T03:23:48.482Z,30.20
2022-09-16T03:26:36.021Z,30.20
2022-09-16T03:29:09.541Z,30.30
2022-09-16T03:31:53.341Z,30.40
2022-09-16T03:34:25.270Z,30.40
2022-09-16T03:37:01.465Z,30.50
2022-09-16T03:39:30.610Z,30.60
2022-09-16T03:42:06.892Z,30.60
2022-09-16T03:44:36.929Z,30.70
2022-09-16T03:47:05.790Z,30.80
2022-09-16T03:49:34.108Z,30.90
2022-09-16T03:52:09.720Z,30.90
2022-09-16T03:54:38.883Z,30.90
2022-09-16T03:57:06.927Z,30.90
2022-09-16T03:59:34.583Z,31.00
2022-09-16T04:02:02.344Z,31.00
2022-09-16T04:04:30.114Z,31.00
2022-09-16T04:06:57.859Z,31.00
2022-09-16T04:09:26.517Z,31.10
2022-09-16T04:11:54.565Z,31.10
2022-09-16T04:14:22.218Z,31.10
2022-09-16T04:16:51.709Z,31.10
2022-09-16T04:19:20.668Z,31.10
2022-09-16T04:21:49.541Z,31.10
2022-09-16T04:24:18.925Z,31.10
2022-09-16T04:26:47.813Z,31.20
2022-09-16T04:29:16.614Z,31.20
2022-09-16T04:31:44.958Z,31.20
2022-09-16T04:34:12.829Z,31.20
2022-09-16T04:36:41.007Z,31.30
2022-09-16T04:39:09.361Z,31.30
2022-09-16T04:41:38.026Z,31.30
2022-09-16T04:44:06.262Z,31.30
2022-09-16T04:46:35.048Z,31.30
2022-09-16T04:49:04.002Z,31.30
2022-09-16T04:51:53.577Z,31.40
2022-09-16T04:54:21.600Z,31.50
2022-09-16T04:56:50.231Z,31.50
2022-09-16T04:59:38.933Z,31.50
2022-09-16T05:02:25.364Z,31.50
2022-09-16T05:04:53.340Z,31.70
2022-09-16T05:07:21.284Z,31.70
2022-09-16T05:09:55.580Z,31.80
2022-09-16T05:12:24.057Z,31.90
2022-09-16T05:14:55.115Z,31.90
2022-09-16T05:17:46.981Z,32.00
2022-09-16T05:20:12.255Z,32.00
2022-09-16T05:22:40.142Z,32.10
2022-09-16T05:25:13.949Z,32.10
2022-09-16T05:27:41.635Z,32.20
2022-09-16T05:30:09.871Z,32.20
2022-09-16T05:32:39.064Z,32.20
2022-09-16T05:35:09.192Z,32.20
2022-09-16T05:38:25.067Z,32.20
2022-09-16T05:40:58.895Z,32.20
2022-09-16T05:43:34.943Z,32.50
2022-09-16T05:46:03.034Z,32.10
2022-09-16T05:48:31.070Z,32.10
2022-09-16T05:51:06.707Z,32.10
2022-09-16T05:56:22.169Z,32.30
2022-09-16T05:58:52.581Z,32.30
2022-09-16T06:01:22.350Z,32.30
2022-09-16T06:03:51.677Z,32.30
2022-09-16T06:06:39.230Z,32.30
2022-09-16T06:09:18.712Z,32.30
2022-09-16T06:11:50.951Z,32.30
2022-09-16T06:14:20.076Z,32.30
2022-09-16T06:16:48.538Z,32.30
2022-09-16T06:19:22.088Z,32.30
2022-09-16T06:21:50.280Z,32.30
2022-09-16T06:24:19.039Z,32.20
2022-09-16T06:26:49.589Z,32.20
2022-09-16T06:29:18.127Z,32.20
2022-09-16T06:31:46.503Z,32.20
2022-09-16T06:34:21.408Z,32.20
2022-09-16T06:36:53.125Z,32.20
2022-09-16T06:39:23.262Z,32.20
2022-09-16T06:41:57.107Z,32.30
2022-09-16T06:44:24.711Z,32.30
2022-09-16T06:46:52.633Z,32.40
2022-09-16T06:49:21.972Z,32.40
2022-09-16T06:51:50.893Z,32.50
2022-09-16T06:54:19.046Z,32.50
2022-09-16T06:56:46.786Z,32.50
2022-09-16T06:59:14.964Z,32.50
2022-09-16T07:01:42.832Z,32.50
2022-09-16T07:04:14.387Z,32.50
2022-09-16T07:07:08.122Z,32.50
2022-09-16T07:09:31.570Z,32.50
2022-09-16T07:11:59.874Z,32.50
2022-09-16T07:14:28.848Z,32.50
2022-09-16T07:16:58.300Z,32.50
2022-09-16T07:19:29.563Z,32.50
2022-09-16T07:21:58.842Z,32.50
2022-09-16T07:24:26.794Z,32.50
2022-09-16T07:26:54.561Z,32.40
2022-09-16T07:29:22.661Z,32.30
2022-09-16T07:31:50.502Z,32.30
2022-09-16T07:34:19.614Z,32.30
2022-09-16T07:36:49.629Z,32.20
2022-09-16T07:39:19.929Z,32.20
2022-09-16T07:41:52.499Z,32.20
2022-09-16T07:44:21.059Z,32.20
2022-09-16T07:46:51.733Z,32.10
2022-09-16T07:49:21.046Z,32.10
2022-09-16T07:51:58.564Z,32.10
2022-09-16T07:54:27.418Z,32.10
2022-09-16T07:56:56.023Z,32.00
2022-09-16T07:59:24.211Z,32.00
2022-09-16T08:01:52.476Z,32.00
2022-09-16T08:04:21.336Z,31.90
2022-09-16T08:06:50.974Z,31.90
2022-09-16T08:09:41.103Z,31.90
2022-09-16T08:12:11.223Z,31.80
2022-09-16T08:14:41.464Z,31.80
2022-09-16T08:17:09.952Z,31.80
2022-09-16T08:19:41.028Z,31.80
2022-09-16T08:22:10.067Z,31.80
2022-09-16T08:24:39.283Z,31.80
2022-09-16T08:27:07.056Z,31.80
2022-09-16T08:29:36.664Z,31.70
2022-09-16T08:32:04.794Z,31.70
2022-09-16T08:34:37.742Z,31.70
2022-09-16T08:37:05.621Z,31.70
2022-09-16T08:39:33.433Z,31.60
2022-09-16T08:42:14.155Z,31.60
2022-09-16T08:44:59.390Z,31.60
2022-09-16T08:47:38.471Z,31.60
2022-09-16T08:50:11.335Z,31.50
2022-09-16T08:52:45.140Z,31.50
2022-09-16T08:55:25.274Z,31.50
2022-09-16T08:58:01.926Z,31.50
2022-09-16T09:00:52.438Z,31.50
2022-09-16T09:03:42.536Z,31.40
2022-09-16T09:06:23.369Z,31.40
2022-09-16T09:08:55.842Z,31.30
2022-09-16T09:11:37.607Z,31.10
2022-09-16T09:14:21.177Z,30.70
2022-09-16T09:17:01.901Z,30.30
2022-09-16T09:19:36.222Z,29.70
2022-09-16T09:22:24.907Z,29.20
2022-09-16T09:25:06.130Z,28.90
2022-09-16T09:27:53.913Z,28.60
2022-09-16T09:30:23.321Z,28.40
2022-09-16T09:32:58.001Z,28.30
2022-09-16T09:35:37.859Z,28.10
2022-09-16T09:38:25.224Z,28.00
2022-09-16T09:40:54.966Z,27.90
2022-09-16T09:43:42.252Z,27.80
2022-09-16T09:46:29.704Z,27.80
2022-09-16T09:49:09.860Z,27.60
2022-09-16T09:51:39.917Z,27.50
2022-09-16T09:54:19.892Z,27.40
2022-09-16T09:56:49.060Z,27.30
2022-09-16T09:59:29.780Z,27.10
2022-09-16T10:01:58.792Z,27.00
2022-09-16T10:04:26.575Z,26.90
2022-09-16T10:06:56.267Z,26.90
2022-09-16T10:09:24.115Z,26.90
2022-09-16T10:11:55.397Z,26.80
2022-09-16T10:14:26.186Z,26.80
2022-09-16T10:16:54.425Z,26.70
2022-09-16T10:19:24.775Z,26.70
2022-09-16T10:21:54.292Z,26.70
2022-09-16T10:24:34.405Z,26.70
2022-09-16T10:27:03.689Z,26.70
2022-09-16T10:29:31.460Z,26.70
2022-09-16T10:32:06.733Z,26.70
2022-09-16T10:34:41.017Z,26.70
2022-09-16T10:37:18.289Z,26.70
2022-09-16T10:39:52.181Z,26.70
2022-09-16T10:42:25.535Z,26.80
2022-09-16T10:44:54.391Z,26.80
2022-09-16T10:47:23.977Z,26.80
2022-09-16T10:50:05.887Z,26.80
2022-09-16T10:52:41.792Z,26.70
2022-09-16T10:55:21.741Z,26.70
2022-09-16T10:57:49.354Z,26.60
2022-09-16T11:00:31.898Z,26.60
2022-09-16T11:03:11.775Z,26.60
2022-09-16T11:05:51.370Z,26.60
2022-09-16T11:08:38.478Z,26.60
2022-09-16T11:11:20.204Z,26.60
2022-09-16T11:13:53.674Z,26.50
2022-09-16T11:16:30.964Z,26.40
2022-09-16T11:19:07.232Z,26.40
2022-09-16T11:21:57.258Z,26.40
2022-09-16T11:24:35.928Z,26.40
2022-09-16T11:27:16.977Z,26.40
2022-09-16T11:30:04.255Z,26.30
2022-09-16T11:32:43.714Z,26.30
2022-09-16T11:35:23.682Z,26.30
2022-09-16T11:38:10.937Z,26.30
2022-09-16T11:40:58.314Z,26.20
2022-09-16T11:43:37.775Z,26.10
2022-09-16T11:46:16.638Z,26.10
2022-09-16T11:49:03.916Z,26.10
2022-09-16T11:51:48.648Z,26.10
2022-09-16T11:54:28.624Z,26.00
2022-09-16T11:56:59.054Z,26.00
2022-09-16T11:59:33.530Z,26.00
2022-09-16T12:02:20.824Z,26.00
2022-09-16T12:04:59.265Z,26.10
2022-09-16T12:07:31.066Z,26.10
2022-09-16T12:10:03.478Z,26.10
2022-09-16T12:12:37.738Z,26.10
2022-09-16T12:15:26.568Z,26.10
2022-09-16T12:18:00.305Z,26.10
2022-09-16T12:20:34.538Z,26.10
2022-09-16T12:23:07.149Z,26.10
2022-09-16T12:25:54.422Z,26.00
2022-09-16T12:28:25.958Z,26.10
2022-09-16T12:31:03.990Z,26.10
2022-09-16T12:33:41.011Z,26.10
2022-09-16T12:36:18.002Z,26.10
2022-09-16T12:38:49.222Z,26.20
2022-09-16T12:41:36.510Z,26.20
2022-09-16T12:44:33.864Z,26.20
2022-09-16T12:47:21.485Z,26.20
2022-09-16T12:49:57.466Z,26.20
2022-09-16T12:52:30.499Z,26.20
2022-09-16T12:55:09.454Z,26.20
2022-09-16T12:57:57.484Z,26.20
2022-09-16T13:00:37.361Z,26.20
2022-09-16T13:03:16.197Z,26.20
2022-09-16T13:05:46.490Z,26.10
2022-09-16T13:08:26.521Z,26.10
2022-09-16T13:11:53.773Z,26.10
2022-09-16T13:14:01.418Z,26.10
2022-09-16T13:16:32.013Z,26.10
2022-09-16T13:19:19.286Z,26.10
2022-09-16T13:21:47.691Z,26.20
2022-09-16T13:24:29.018Z,26.10
2022-09-16T13:26:57.941Z,26.20
2022-09-16T13:29:45.374Z,26.20
2022-09-16T13:32:25.231Z,26.20
2022-09-16T13:35:13.332Z,26.20
2022-09-16T13:37:41.124Z,26.20
2022-09-16T13:40:09.966Z,26.20
2022-09-16T13:42:37.712Z,26.20
2022-09-16T13:45:24.953Z,26.20
2022-09-16T13:47:53.544Z,26.20
2022-09-16T13:50:23.643Z,26.20
2022-09-16T13:52:54.224Z,26.30
2022-09-16T13:55:24.421Z,26.20
2022-09-16T13:58:04.629Z,26.20
2022-09-16T14:00:45.460Z,26.20
2022-09-16T14:03:25.505Z,26.20
2022-09-16T14:06:13.605Z,26.20
2022-09-16T14:08:53.600Z,26.20
2022-09-16T14:11:33.489Z,26.20
2022-09-16T14:14:15.696Z,26.10
2022-09-16T14:16:55.167Z,26.10
2022-09-16T14:19:31.983Z,26.10
2022-09-16T14:22:08.598Z,26.00
2022-09-16T14:24:37.587Z,26.10
2022-09-16T14:27:05.938Z,26.10
2022-09-16T14:29:33.751Z,26.10
2022-09-16T14:32:04.180Z,26.10
2022-09-16T14:34:34.183Z,26.10
2022-09-16T14:37:02.733Z,26.10
2022-09-16T14:39:30.791Z,26.10
2022-09-16T14:42:01.005Z,26.10
2022-09-16T14:44:34.819Z,26.10
2022-09-16T14:47:09.437Z,26.20
2022-09-16T14:49:42.384Z,26.10
2022-09-16T14:52:24.777Z,26.10
2022-09-16T14:54:52.504Z,26.10
2022-09-16T14:57:25.055Z,26.10
2022-09-16T14:59:56.224Z,26.00
2022-09-16T15:02:27.664Z,26.00
2022-09-16T15:05:00.252Z,26.00
2022-09-16T15:07:30.502Z,26.00
2022-09-16T15:10:03.801Z,26.00
2022-09-16T15:12:33.893Z,26.00
2022-09-16T15:15:16.130Z,26.00
2022-09-16T15:17:43.726Z,26.00
2022-09-16T15:20:22.298Z,26.00
2022-09-16T15:22:50.007Z,26.00
2022-09-16T15:25:25.892Z,25.90
2022-09-16T15:28:03.827Z,25.90
2022-09-16T15:30:31.642Z,25.90
2022-09-16T15:32:59.321Z,25.90
2022-09-16T15:35:28.656Z,25.90
2022-09-16T15:37:56.515Z,26.00
2022-09-16T15:40:32.330Z,26.00
2022-09-16T15:43:13.173Z,26.00
2022-09-16T15:45:41.950Z,26.00
2022-09-16T15:48:20.365Z,25.90
2022-09-16T15:50:54.726Z,25.90
2022-09-16T15:53:42.130Z,26.00
2022-09-16T15:56:18.733Z,26.00
2022-09-16T15:58:48.051Z,25.90
2022-09-16T16:01:23.540Z,25.90
2022-09-16T16:03:55.122Z,26.00
2022-09-16T16:06:42.847Z,26.00
2022-09-16T16:09:29.348Z,26.00
2022-09-16T16:11:58.429Z,26.10
2022-09-16T16:14:27.879Z,26.10
2022-09-16T16:17:12.396Z,26.10
2022-09-16T16:19:42.422Z,26.10
2022-09-16T16:22:11.557Z,26.10
2022-09-16T16:24:40.690Z,26.20
2022-09-16T16:27:08.963Z,26.20
2022-09-16T16:29:36.733Z,26.20
2022-09-16T16:32:06.227Z,26.20
2022-09-16T16:34:35.147Z,26.20
2022-09-16T16:37:02.848Z,26.20
2022-09-16T16:39:30.937Z,26.20
2022-09-16T16:41:58.764Z,26.20
2022-09-16T16:44:26.768Z,26.20
2022-09-16T16:46:55.210Z,26.20
2022-09-16T16:49:23.429Z,26.20
2022-09-16T16:52:01.071Z,26.20
2022-09-16T16:54:29.228Z,26.20
2022-09-16T16:56:56.840Z,26.20
2022-09-16T16:59:25.177Z,26.20
2022-09-16T17:01:53.881Z,26.20
2022-09-16T17:04:21.849Z,26.20
2022-09-16T17:07:02.724Z,26.20
2022-09-16T17:09:38.733Z,26.20
2022-09-16T17:12:06.699Z,26.20
2022-09-16T17:14:34.726Z,26.20
2022-09-16T17:17:03.269Z,26.20
2022-09-16T17:19:32.643Z,26.20
2022-09-16T17:22:00.268Z,26.20
2022-09-16T17:24:27.948Z,26.10
2022-09-16T17:26:55.627Z,26.20
2022-09-16T17:29:23.369Z,26.10
2022-09-16T17:31:50.979Z,26.10
2022-09-16T17:34:18.703Z,26.10
2022-09-16T17:36:47.113Z,26.20
2022-09-16T17:39:16.187Z,26.10
2022-09-16T17:41:44.708Z,26.10
2022-09-16T17:44:13.673Z,26.10
2022-09-16T17:46:42.298Z,26.10
2022-09-16T17:49:14.622Z,26.20
2022-09-16T17:51:42.259Z,26.20
2022-09-16T17:54:10.203Z,26.20
2022-09-16T17:56:37.900Z,26.20
2022-09-16T17:59:06.092Z,26.20
2022-09-16T18:01:34.070Z,26.20
2022-09-16T18:04:02.572Z,26.20
2022-09-16T18:06:32.079Z,26.30
2022-09-16T18:09:00.663Z,26.30
2022-09-16T18:11:28.662Z,26.30
2022-09-16T18:13:57.554Z,26.30
2022-09-16T18:16:26.662Z,26.30
2022-09-16T18:18:55.925Z,26.20
2022-09-16T18:21:24.317Z,26.30
2022-09-16T18:23:59.639Z,26.30
2022-09-16T18:26:27.701Z,26.30
2022-09-16T18:29:12.597Z,26.20
2022-09-16T18:31:41.590Z,26.20
2022-09-16T18:34:09.326Z,26.20
2022-09-16T18:36:37.914Z,26.20
2022-09-16T18:39:07.338Z,26.20
2022-09-16T18:41:36.530Z,26.20
2022-09-16T18:44:11.789Z,26.20
2022-09-16T18:46:39.597Z,26.20
2022-09-16T18:49:07.483Z,26.20
2022-09-16T18:51:36.596Z,26.20
2022-09-16T18:54:06.237Z,26.30
2022-09-16T18:56:35.878Z,26.20
2022-09-16T18:59:23.957Z,26.20
2022-09-16T19:01:53.379Z,26.20
2022-09-16T19:04:22.641Z,26.20
2022-09-16T19:06:51.833Z,26.20
2022-09-16T19:09:20.547Z,26.20
2022-09-16T19:11:48.739Z,26.20
2022-09-16T19:14:16.905Z,26.20
2022-09-16T19:16:45.289Z,26.20
2022-09-16T19:19:13.993Z,26.20
2022-09-16T19:21:42.523Z,26.20
2022-09-16T19:24:18.509Z,26.10
2022-09-16T19:26:46.729Z,26.10
2022-09-16T19:29:15.779Z,26.10
2022-09-16T19:31:44.271Z,26.10
2022-09-16T19:34:12.498Z,26.00
2022-09-16T19:36:40.195Z,26.00
2022-09-16T19:39:08.665Z,26.00
2022-09-16T19:41:37.660Z,26.00
2022-09-16T19:44:07.085Z,25.90
2022-09-16T19:46:36.010Z,26.00
2022-09-16T19:49:03.961Z,25.90
2022-09-16T19:51:33.432Z,25.90
2022-09-16T19:54:01.602Z,25.90
2022-09-16T19:56:30.788Z,25.90
2022-09-16T19:58:58.873Z,25.80
2022-09-16T20:01:27.984Z,25.80
2022-09-16T20:03:56.175Z,25.80
2022-09-16T20:06:25.923Z,25.80
2022-09-16T20:08:54.973Z,25.80
2022-09-16T20:11:23.866Z,25.80
2022-09-16T20:13:56.344Z,25.80
2022-09-16T20:16:25.508Z,25.80
2022-09-16T20:18:54.179Z,25.80
2022-09-16T20:21:23.895Z,25.80
2022-09-16T20:23:52.540Z,25.80
2022-09-16T20:26:21.208Z,25.80
2022-09-16T20:28:53.042Z,25.80
2022-09-16T20:31:25.734Z,25.80
2022-09-16T20:33:54.029Z,25.80
2022-09-16T20:36:22.924Z,25.80
2022-09-16T20:38:51.077Z,25.80
2022-09-16T20:41:23.021Z,25.80
2022-09-16T20:43:51.941Z,25.80
2022-09-16T20:46:24.317Z,25.80
2022-09-16T20:48:55.917Z,25.80
2022-09-16T20:51:27.801Z,25.80
2022-09-16T20:53:56.863Z,25.80
2022-09-16T20:56:25.036Z,25.80
2022-09-16T20:58:52.812Z,25.80
2022-09-16T21:01:23.095Z,25.80
2022-09-16T21:03:51.935Z,25.80
2022-09-16T21:06:20.072Z,25.80
2022-09-16T21:08:47.799Z,25.90
2022-09-16T21:11:17.060Z,25.90
2022-09-16T21:13:45.575Z,25.90
2022-09-16T21:16:14.436Z,25.90
2022-09-16T21:18:42.630Z,25.90
2022-09-16T21:21:18.080Z,25.80
2022-09-16T21:23:49.666Z,25.80
2022-09-16T21:26:19.015Z,25.80
2022-09-16T21:28:47.348Z,25.80
2022-09-16T21:31:15.815Z,25.80
2022-09-16T21:33:45.147Z,25.80
2022-09-16T21:36:13.585Z,25.80
2022-09-16T21:38:41.699Z,25.80
2022-09-16T21:41:13.463Z,25.80
2022-09-16T21:43:51.981Z,25.80
2022-09-16T21:46:23.552Z,25.80
2022-09-16T21:48:51.509Z,25.80
2022-09-16T21:51:20.374Z,25.70
2022-09-16T21:53:48.368Z,25.70
2022-09-16T21:56:20.854Z,25.70
2022-09-16T21:58:49.086Z,25.70
2022-09-16T22:01:18.565Z,25.80
2022-09-16T22:03:47.633Z,25.70
2022-09-16T22:06:16.329Z,25.80
2022-09-16T22:08:48.785Z,25.70
2022-09-16T22:11:17.661Z,25.70
2022-09-16T22:13:45.399Z,25.80
2022-09-16T22:16:18.447Z,25.80
2022-09-16T22:18:46.175Z,25.80
2022-09-16T22:21:15.545Z,25.80
2022-09-16T22:23:43.184Z,25.80
2022-09-16T22:26:12.029Z,25.80
2022-09-16T22:28:39.892Z,25.80
2022-09-16T22:31:27.202Z,25.80
2022-09-16T22:33:55.404Z,25.80
2022-09-16T22:36:24.859Z,25.80
2022-09-16T22:38:56.735Z,25.80
2022-09-16T22:41:24.820Z,25.80
2022-09-16T22:43:53.212Z,25.80
2022-09-16T22:46:22.481Z,25.80
2022-09-16T22:48:51.057Z,25.80
2022-09-16T22:51:19.418Z,25.80
2022-09-16T22:53:47.390Z,25.80
2022-09-16T22:56:16.604Z,25.80
2022-09-16T22:58:44.567Z,25.80
2022-09-16T23:01:16.877Z,25.80
2022-09-16T23:03:45.309Z,25.80
2022-09-16T23:06:14.423Z,25.80
2022-09-16T23:08:43.194Z,25.80
2022-09-16T23:11:13.586Z,25.80
2022-09-16T23:13:42.273Z,25.80
2022-09-16T23:16:17.776Z,25.80
2022-09-16T23:18:46.763Z,25.80
2022-09-16T23:21:15.586Z,25.80
2022-09-16T23:23:44.408Z,25.80
2022-09-16T23:26:14.709Z,25.80
2022-09-16T23:28:43.136Z,25.80
2022-09-16T23:31:15.120Z,25.80
2022-09-16T23:33:43.521Z,25.80
2022-09-16T23:36:12.459Z,25.90
2022-09-16T23:38:40.697Z,25.90
2022-09-16T23:41:11.004Z,25.90
2022-09-16T23:43:39.032Z,25.90
2022-09-16T23:46:07.066Z,25.90
2022-09-16T23:48:35.653Z,25.90
2022-09-16T23:51:04.179Z,26.00
2022-09-16T23:53:32.424Z,26.00
2022-09-16T23:56:00.340Z,26.00
2022-09-16T23:58:27.976Z,26.00
